Terminal Aerodrome Forecast
Issued by NWS

Home | Current Version | Previous Version | Graphics & Text | Print | Product List | Glossary On
Versions: 1 2 3 4 5 6 7 8 9 10 11 12 13 14 15 16 17
000
FTUS43 KTOP 172039 AAA
TAFFOE
TAF AMD
KFOE 172039Z 1721/1818 06008KT P6SM VCSH BKN012 OVC040
     FM180000 08005KT P6SM VCTS BKN009 BKN040CB
     FM180900 13006KT 6SM -SHRA VCTS BKN004 OVC015CB=

USA.gov is the U.S. government's official web portal to all federal, state and local government web resources and services.